KCAE/CAE METAR and TAF weather

Enter ICAO airport designator
Station Type Date Time Source
KCAE METAR 2021/09/24 04:56 UTC NOAA

KCAE 240456Z 19003KT 10SM CLR 14/13 A3002 RMK AO2 SLP164 T01390128 402560139


Station Type Date Time Source
KCAE Decoded METAR 2021/09/24 04:56 UTC NOAA

COLUMBIA METROPOLITAN AIRPORT , SC, United States (KCAE) 33-57N 081-07W 73M
Sep 24, 2021 - 12:56 AM EDT / 2021.09.24 0456 UTC
Wind: from the S (190 degrees) at 3 MPH (3 KT):0
Visibility: 10 mile(s):0
Sky conditions: clear
Temperature: 57.0 F (13.9 C)
Dew Point: 55.0 F (12.8 C)
Relative Humidity: 93%
Pressure (altimeter): 30.02 in. Hg (1016 hPa)
ob: KCAE 240456Z 19003KT 10SM CLR 14/13 A3002 RMK AO2 SLP164 T01390128 402560139
cycle: 5

Station Type Date Time Source
KCAE TAF 2021/09/24 02:30 UTC NOAA

TAF
AMD KCAE 240228Z 2402/2424 VRB03KT P6SM SKC
FM241400 03008KT P6SM SKC

Example: see airport list